Petersburg, AK

5:25 AM AKDT on August 30, 2016 (GMT -0800)
Johnson Petersburg | | Change Station

Elev 0 ft 56.82 °N, 132.97 °W | Updated 9 minutes ago

Overcast
Overcast
52 °F
Feels Like 52 °F
N
0
Wind Variable Wind from North

Today
High -- | Low -- °F
--% Chance of Precip.
Yesterday
High -- | Low -- °F
Precip. -- in
Pressure 29.89 in
Visibility 7.0 miles
Clouds Few 7000 ft
Mostly Cloudy 7500 ft
Overcast 12000 ft
Dew Point 45 °F
Humidity 76%
Rainfall 0.03 in
Snow Depth Not available.
5:53 AM 7:52 PM
Waning Crescent, 4% visible
METAR PAPG 301316Z 00000KT 7SM FEW070 BKN075 OVC120 11/07 A2989 RMK AO1
Pressure 29.89 in
Visibility 7.0 miles
Clouds Few 7000 ft
Mostly Cloudy 7500 ft
Overcast 12000 ft
Dew Point 45 °F
Humidity 76%
Rainfall 0.03 in
Snow Depth Not available.
5:53 AM 7:52 PM
Waning Crescent, 4% visible
METAR PAPG 301316Z 00000KT 7SM FEW070 BKN075 OVC120 11/07 A2989 RMK AO1

10-Day Weather Forecast

Almanac

Astronomy

Aug. 30, 2016 Rise Set
Actual Time
Civil Twilight
Nautical Twilight
Astronomical Twilight
Moon
Length of Visible Light
Length of Day
Tomorrow will be .
, % of the Moon is Illuminated

Today's Extremes

State Highs State Lows

Community

WunderPhotos

Upload Photos

1,935,831 photos uploaded!

WunderBlog® & News

Nearby

Air Quality

  Air Quality AQ Index Pollutant
Not available.

Snow Depth

Station Depth Elevation

Earthquake Activity

City Distance Mag. Time & Date
Minimum magnitude displayed is 2.5.

Coastal Water Temperatures

Place Temperature

Stations

Nearby Weather Stations

Station Location Temp. Windchill Dew Point Humidity Wind Precip. Elev Updated Type
                   

Watches & Warnings

There are currently no watches in effect.